Abraham, Utah
Current Conditions -  °F | °C
As of 1:55 AM on Thursday 23 Oct 2014 (Local Time) from KDTA Reporting Station
Clear Clear  
Wind Chill: 39°   Ceiling: Unl
Heat Index: 42°   Visibility: 10mi
Dew Point: 29°   Wind: 5mph
Humidity: 60%   Direction: 230°SW
Pressure: 30.18"   Gusts: NA
Location:  39.4463°N, 112.85°W
Report Text: KDTA 230755Z AUTO 23004KT 10SM CLR 06/M02 A3018 RMK AO1 T00561017
Loading
Personal Weather Stations






























Interactive Weather Map
Tropical Storm Tracking
New forecast layout! Learn more

10-Day Weather Forecast

Advertisements
Track Severe Weather on mobile